Time;durP1;ratioP1;P1;durP2;ratioP2;P2;SDS_P1;SDS_P2;PMS_P1;PMS_P2;Temp;Humidity;BMP_temperature;BMP_pressure;BME280_temperature;BME280_humidity;BME280_pressure;Samples;Min_cycle;Max_cycle;Signal;HPM_P1;HPM_P2
2023/08/13 00:01:23;;;;;;;6.10;1.95;;;15.60;99.90;;;;;;4826756;29;20050;-87
2023/08/13 00:03:49;;;;;;;6.07;1.95;;;15.60;99.90;;;;;;4829045;29;20050;-86
2023/08/13 00:06:15;;;;;;;6.40;1.80;;;15.60;99.90;;;;;;4798617;29;20060;-86
2023/08/13 00:08:41;;;;;;;8.13;1.80;;;15.70;99.90;;;;;;4832929;29;20077;-88
2023/08/13 00:11:11;;;;;;;5.93;1.65;;;15.60;99.90;;;;;;4834383;29;20497;-85
2023/08/13 00:13:41;;;;;;;6.90;1.63;;;15.60;99.90;;;;;;4826397;29;20523;-86
2023/08/13 00:16:07;;;;;;;7.90;1.35;;;15.60;99.90;;;;;;4823869;29;20110;-87
2023/08/13 00:18:34;;;;;;;7.37;1.63;;;15.60;99.90;;;;;;4820469;29;20037;-87
2023/08/13 00:20:59;;;;;;;6.93;1.75;;;15.60;99.90;;;;;;4830553;29;20061;-86
2023/08/13 00:23:26;;;;;;;6.45;1.48;;;15.60;99.90;;;;;;4797243;29;20078;-85
2023/08/13 00:25:51;;;;;;;7.43;1.90;;;15.50;99.90;;;;;;4837049;29;20181;-84
2023/08/13 00:28:17;;;;;;;6.18;2.20;;;15.50;99.90;;;;;;4819551;29;20045;-84
2023/08/13 00:30:43;;;;;;;4.38;1.50;;;15.50;99.90;;;;;;4836499;29;20113;-86
2023/08/13 00:33:09;;;;;;;4.50;1.80;;;15.60;99.90;;;;;;4824685;29;20037;-86
2023/08/13 00:35:35;;;;;;;5.93;2.08;;;15.50;99.90;;;;;;4809772;29;20046;-85
2023/08/13 00:38:01;;;;;;;5.93;1.45;;;15.50;99.90;;;;;;4828586;29;20396;-86
2023/08/13 00:40:27;;;;;;;7.13;1.67;;;15.50;99.90;;;;;;4799019;29;20060;-85
2023/08/13 00:42:53;;;;;;;6.22;1.60;;;15.50;99.90;;;;;;4828297;29;20505;-84
2023/08/13 00:45:20;;;;;;;5.07;1.70;;;15.50;99.90;;;;;;4845351;29;20105;-85
2023/08/13 00:47:47;;;;;;;9.43;2.25;;;15.50;99.90;;;;;;4813850;29;20046;-86
2023/08/13 00:50:13;;;;;;;5.30;1.90;;;15.50;99.90;;;;;;4845545;29;20141;-87
2023/08/13 00:52:39;;;;;;;4.35;1.70;;;15.40;99.90;;;;;;4836210;29;20445;-90
2023/08/13 00:55:06;;;;;;;6.47;1.38;;;15.50;99.90;;;;;;4834788;29;20045;-82
2023/08/13 00:57:32;;;;;;;7.78;1.70;;;15.40;99.90;;;;;;4828764;29;20052;-85
2023/08/13 00:59:59;;;;;;;5.90;1.95;;;15.50;99.90;;;;;;4806990;29;20046;-87
2023/08/13 01:02:24;;;;;;;5.80;1.77;;;15.50;99.90;;;;;;4836098;29;20045;-84
2023/08/13 01:04:50;;;;;;;7.35;2.40;;;15.40;99.90;;;;;;4803105;29;20132;-83
2023/08/13 01:07:37;;;;;;;6.18;1.70;;;15.50;99.90;;;;;;4832108;29;20575;-86
2023/08/13 01:10:13;;;;;;;6.45;1.55;;;15.50;99.90;;;;;;4826973;29;20591;-85
2023/08/13 01:13:08;;;;;;;7.32;1.80;;;15.40;99.90;;;;;;4830385;29;20050;-88
2023/08/13 01:15:38;;;;;;;7.40;1.70;;;15.40;99.90;;;;;;4831731;29;20104;-86
2023/08/13 01:18:05;;;;;;;9.15;1.70;;;15.40;99.90;;;;;;4834843;29;20049;-85
2023/08/13 01:20:39;;;;;;;5.15;1.90;;;15.40;99.90;;;;;;4848760;29;20174;-86
2023/08/13 01:23:05;;;;;;;5.47;1.70;;;15.40;99.90;;;;;;4826249;29;20081;-87
2023/08/13 01:25:32;;;;;;;4.82;1.67;;;15.40;99.90;;;;;;4824122;29;20078;-86
2023/08/13 01:28:10;;;;;;;7.65;2.08;;;15.40;99.90;;;;;;4821548;29;20034;-87
2023/08/13 01:30:43;;;;;;;5.43;1.80;;;15.40;99.90;;;;;;4831570;29;20045;-84
2023/08/13 01:33:14;;;;;;;7.53;1.77;;;15.40;99.90;;;;;;4829908;29;20041;-86
2023/08/13 01:35:42;;;;;;;5.05;1.67;;;15.40;99.90;;;;;;4845748;29;20529;-87
2023/08/13 01:38:09;;;;;;;5.05;1.50;;;15.40;99.90;;;;;;4815001;29;20046;-86
2023/08/13 01:40:34;;;;;;;5.27;1.60;;;15.40;99.90;;;;;;4820320;29;20060;-88
2023/08/13 01:43:00;;;;;;;5.85;2.03;;;15.40;99.90;;;;;;4845343;29;20049;-88
2023/08/13 01:45:26;;;;;;;6.40;1.80;;;15.40;99.90;;;;;;4836630;29;20382;-86
2023/08/13 01:47:52;;;;;;;5.22;1.50;;;15.50;99.90;;;;;;4833417;29;20048;-88
2023/08/13 01:50:18;;;;;;;7.85;1.50;;;15.50;99.90;;;;;;4800237;29;20041;-87
2023/08/13 01:52:43;;;;;;;5.28;1.63;;;15.40;99.90;;;;;;4833482;29;20042;-86
2023/08/13 01:55:10;;;;;;;8.00;1.98;;;15.50;99.90;;;;;;4823450;29;20045;-85
2023/08/13 01:57:35;;;;;;;8.18;1.70;;;15.50;99.90;;;;;;4809111;29;20046;-87
2023/08/13 02:00:01;;;;;;;4.95;1.80;;;15.40;99.90;;;;;;4819369;29;20052;-85
2023/08/13 02:02:27;;;;;;;9.20;1.88;;;15.50;99.90;;;;;;4826567;29;20547;-86
2023/08/13 02:04:52;;;;;;;6.03;1.90;;;15.50;99.90;;;;;;4828245;29;20129;-85
2023/08/13 02:07:18;;;;;;;5.47;1.60;;;15.50;99.90;;;;;;4825940;29;20046;-84
2023/08/13 02:09:44;;;;;;;5.70;1.50;;;15.40;99.90;;;;;;4818736;29;20120;-84
2023/08/13 02:12:10;;;;;;;9.80;2.00;;;15.40;99.90;;;;;;4820435;29;20486;-83
2023/08/13 02:14:35;;;;;;;5.30;1.63;;;15.50;99.90;;;;;;4803154;29;20033;-87
2023/08/13 02:17:01;;;;;;;5.85;1.70;;;15.50;99.90;;;;;;4844965;29;20060;-85
2023/08/13 02:19:27;;;;;;;6.70;1.88;;;15.40;99.90;;;;;;4837869;29;20048;-84
2023/08/13 02:21:52;;;;;;;10.07;2.22;;;15.50;99.90;;;;;;4811933;29;20042;-85
2023/08/13 02:24:18;;;;;;;5.85;1.88;;;15.40;99.90;;;;;;4800036;29;20081;-85
2023/08/13 02:26:44;;;;;;;8.85;1.95;;;15.40;99.90;;;;;;4827664;29;20109;-84
2023/08/13 02:29:09;;;;;;;6.47;1.80;;;15.40;99.90;;;;;;4850033;29;20053;-85
2023/08/13 02:31:35;;;;;;;6.57;2.10;;;15.40;99.90;;;;;;4812447;29;20046;-84
2023/08/13 02:34:01;;;;;;;4.47;1.80;;;15.40;99.90;;;;;;4797221;29;20079;-87
2023/08/13 02:36:27;;;;;;;7.43;2.10;;;15.40;99.90;;;;;;4799795;29;20041;-86
2023/08/13 02:38:53;;;;;;;5.32;1.33;;;15.40;99.90;;;;;;4822216;29;20159;-86
2023/08/13 02:41:19;;;;;;;5.90;1.95;;;15.40;99.90;;;;;;4826343;29;20057;-83
2023/08/13 02:43:53;;;;;;;6.32;1.95;;;15.20;99.90;;;;;;4821803;29;20072;-83
2023/08/13 02:46:24;;;;;;;8.25;2.10;;;15.40;99.90;;;;;;4830721;29;20057;-84
2023/08/13 02:48:55;;;;;;;4.90;1.77;;;15.30;99.90;;;;;;4832561;29;20056;-85
2023/08/13 02:51:21;;;;;;;7.78;2.20;;;15.30;99.90;;;;;;4828045;29;20046;-85
2023/08/13 02:53:47;;;;;;;5.07;2.00;;;15.30;99.90;;;;;;4810168;29;20133;-89
2023/08/13 02:56:13;;;;;;;8.93;2.08;;;15.40;99.90;;;;;;4811930;29;20117;-86
2023/08/13 02:58:39;;;;;;;5.07;1.90;;;15.30;99.90;;;;;;4828742;29;20120;-86
2023/08/13 03:01:06;;;;;;;9.27;2.30;;;15.40;99.90;;;;;;4825371;29;20450;-85
2023/08/13 03:03:31;;;;;;;5.85;2.03;;;15.30;99.90;;;;;;4813443;29;20049;-91
2023/08/13 03:05:58;;;;;;;6.55;1.80;;;15.30;99.90;;;;;;4810763;29;20077;-86
2023/08/13 03:08:23;;;;;;;9.00;2.17;;;15.30;99.90;;;;;;4828572;29;20045;-86
2023/08/13 03:10:49;;;;;;;6.10;1.88;;;15.40;99.90;;;;;;4842532;29;20034;-85
2023/08/13 03:13:15;;;;;;;8.52;2.13;;;15.30;99.90;;;;;;4796221;29;20049;-88
2023/08/13 03:15:41;;;;;;;7.85;1.90;;;15.30;99.90;;;;;;4823359;29;20052;-87
2023/08/13 03:18:07;;;;;;;4.75;1.60;;;15.30;99.90;;;;;;4833862;29;20041;-88
2023/08/13 03:20:33;;;;;;;7.47;2.10;;;15.30;99.90;;;;;;4853849;29;20154;-86
2023/08/13 03:22:59;;;;;;;7.95;2.28;;;15.20;99.90;;;;;;4822888;29;20049;-86
2023/08/13 03:25:25;;;;;;;7.78;1.88;;;15.30;99.90;;;;;;4814653;29;20080;-88
2023/08/13 03:27:51;;;;;;;10.50;2.35;;;15.30;99.90;;;;;;4843263;29;20132;-86
2023/08/13 03:30:17;;;;;;;8.63;2.00;;;15.30;99.90;;;;;;4828979;29;20585;-85
2023/08/13 03:32:42;;;;;;;8.07;2.17;;;15.20;99.90;;;;;;4798922;29;20128;-86
2023/08/13 03:35:08;;;;;;;7.60;2.22;;;15.20;99.90;;;;;;4812370;29;20045;-86
2023/08/13 03:37:34;;;;;;;6.72;1.85;;;15.20;99.90;;;;;;4796223;29;20041;-89
2023/08/13 03:40:00;;;;;;;8.48;1.98;;;15.30;99.90;;;;;;4808112;29;20049;-85
2023/08/13 03:42:25;;;;;;;7.30;2.15;;;15.20;99.90;;;;;;4810347;29;20069;-87
2023/08/13 03:44:51;;;;;;;4.97;2.22;;;15.30;99.90;;;;;;4797928;29;20161;-85
2023/08/13 03:47:17;;;;;;;4.95;2.20;;;15.30;99.90;;;;;;4832297;29;20052;-84
2023/08/13 03:49:43;;;;;;;8.32;1.98;;;15.20;99.90;;;;;;4812323;29;20083;-86
2023/08/13 03:52:11;;;;;;;6.72;2.08;;;15.20;99.90;;;;;;4812789;29;20041;-86
2023/08/13 03:54:37;;;;;;;7.25;2.08;;;15.20;99.90;;;;;;4812814;29;20133;-86
2023/08/13 03:57:03;;;;;;;6.22;1.85;;;15.20;99.90;;;;;;4816604;29;20124;-88
2023/08/13 03:59:29;;;;;;;6.80;2.10;;;15.30;99.90;;;;;;4827127;29;20055;-88
2023/08/13 04:01:57;;;;;;;8.65;2.08;;;15.20;99.90;;;;;;4833670;29;20374;-87
2023/08/13 04:04:23;;;;;;;7.90;1.90;;;15.20;99.90;;;;;;4798613;29;20045;-86
2023/08/13 04:06:49;;;;;;;9.35;2.65;;;15.20;99.90;;;;;;4818248;29;20041;-88
2023/08/13 04:09:14;;;;;;;8.52;1.90;;;15.20;99.90;;;;;;4830812;29;20453;-85
2023/08/13 04:11:40;;;;;;;6.78;2.20;;;15.20;99.90;;;;;;4827023;29;20038;-89
2023/08/13 04:14:06;;;;;;;8.80;2.25;;;15.20;99.90;;;;;;4832073;29;20037;-86
2023/08/13 04:16:32;;;;;;;7.15;2.45;;;15.20;99.90;;;;;;4795723;29;20745;-86
2023/08/13 04:18:57;;;;;;;5.80;1.92;;;15.30;99.90;;;;;;4809971;29;20057;-87
2023/08/13 04:21:27;;;;;;;9.43;2.40;;;15.30;99.90;;;;;;4801722;29;20046;-87
2023/08/13 04:23:56;;;;;;;8.63;2.17;;;15.20;99.90;;;;;;4826371;29;20042;-88
2023/08/13 04:26:22;;;;;;;9.70;2.15;;;15.30;99.90;;;;;;4834706;29;20057;-86
2023/08/13 04:28:48;;;;;;;9.38;2.25;;;15.30;99.90;;;;;;4828211;29;20188;-87
2023/08/13 04:31:15;;;;;;;7.22;2.40;;;15.30;99.90;;;;;;4827306;29;20132;-87
2023/08/13 04:33:41;;;;;;;6.88;2.30;;;15.30;99.90;;;;;;4813381;29;20045;-89
2023/08/13 04:36:07;;;;;;;8.38;2.75;;;15.40;99.90;;;;;;4806360;29;20041;-88
2023/08/13 04:38:33;;;;;;;5.00;1.75;;;15.50;99.90;;;;;;4840939;29;20134;-89
2023/08/13 04:41:00;;;;;;;8.52;2.05;;;15.50;99.90;;;;;;4837979;29;20409;-85
2023/08/13 04:43:26;;;;;;;;;;;15.60;99.90;;;;;;4826924;29;20064;-86
2023/08/13 04:45:52;;;;;;;7.10;2.33;;;15.60;99.90;;;;;;4843123;29;20015;-86
2023/08/13 04:48:38;;;;;;;7.13;2.15;;;15.60;99.90;;;;;;4828052;29;20070;-84
2023/08/13 04:51:04;;;;;;;9.75;2.78;;;15.60;99.90;;;;;;4821607;29;20041;-86
2023/08/13 04:53:29;;;;;;;7.82;2.38;;;15.60;99.90;;;;;;4800471;29;20049;-88
2023/08/13 04:55:55;;;;;;;8.13;2.00;;;15.70;99.90;;;;;;4801348;29;20045;-86
2023/08/13 04:58:21;;;;;;;9.73;2.15;;;15.70;99.90;;;;;;4802533;29;20080;-86
2023/08/13 05:00:46;;;;;;;9.85;3.63;;;15.70;99.90;;;;;;4836914;29;20097;-90
2023/08/13 05:03:12;;;;;;;6.72;2.22;;;15.80;99.90;;;;;;4814820;29;20053;-87
2023/08/13 05:05:38;;;;;;;7.25;2.40;;;15.80;99.90;;;;;;4842533;29;20401;-87
2023/08/13 05:08:04;;;;;;;5.18;1.83;;;15.80;99.90;;;;;;4797216;29;20081;-86
2023/08/13 05:10:29;;;;;;;9.32;2.45;;;15.80;99.90;;;;;;4830187;29;20041;-85
2023/08/13 05:12:55;;;;;;;6.53;2.30;;;15.90;99.90;;;;;;4829137;29;20041;-86
2023/08/13 05:15:21;;;;;;;7.03;2.15;;;15.90;99.90;;;;;;4820754;29;20064;-85
2023/08/13 05:17:46;;;;;;;8.55;2.03;;;15.90;99.90;;;;;;4837559;29;20037;-87
2023/08/13 05:20:12;;;;;;;6.97;2.10;;;16.00;99.90;;;;;;4832155;29;20041;-92
2023/08/13 05:22:38;;;;;;;7.57;2.10;;;16.00;99.90;;;;;;4823907;29;20041;-86
2023/08/13 05:25:04;;;;;;;8.00;2.20;;;16.00;99.90;;;;;;4807699;29;20048;-86
2023/08/13 05:27:30;;;;;;;8.52;2.15;;;16.10;99.90;;;;;;4829831;29;20442;-86
2023/08/13 05:29:55;;;;;;;9.07;2.30;;;16.10;99.90;;;;;;4844425;29;20128;-85
2023/08/13 05:32:22;;;;;;;9.15;3.10;;;16.10;99.90;;;;;;4837186;29;20877;-86
2023/08/13 05:34:48;;;;;;;7.20;2.10;;;16.20;99.90;;;;;;4833416;29;20053;-87
2023/08/13 05:37:14;;;;;;;6.45;2.00;;;16.20;99.90;;;;;;4845215;29;20481;-91
2023/08/13 05:39:39;;;;;;;4.57;1.90;;;16.20;99.90;;;;;;4827022;29;20053;-90
2023/08/13 05:42:05;;;;;;;7.25;2.15;;;16.20;99.90;;;;;;4799924;29;20058;-86
2023/08/13 05:44:31;;;;;;;6.68;2.47;;;16.30;99.90;;;;;;4813465;29;20061;-87
2023/08/13 05:46:57;;;;;;;7.18;2.38;;;16.30;99.90;;;;;;4815887;29;20561;-88
2023/08/13 05:49:23;;;;;;;8.20;2.10;;;16.30;99.90;;;;;;4822518;29;20573;-89
2023/08/13 05:51:49;;;;;;;7.90;2.13;;;16.30;99.90;;;;;;4829853;29;20046;-86
2023/08/13 05:54:15;;;;;;;7.50;2.58;;;16.40;99.90;;;;;;4832324;29;20037;-83
2023/08/13 05:56:41;;;;;;;6.10;2.10;;;16.30;99.90;;;;;;4795034;29;20076;-85
2023/08/13 05:59:06;;;;;;;8.25;2.28;;;16.40;99.90;;;;;;4833350;29;20065;-89
2023/08/13 06:01:33;;;;;;;7.78;1.95;;;16.50;99.90;;;;;;4830045;29;20041;-87
2023/08/13 06:03:59;;;;;;;4.65;2.03;;;16.50;99.90;;;;;;4829523;29;20045;-85
2023/08/13 06:06:25;;;;;;;6.05;2.40;;;16.50;99.90;;;;;;4814562;29;20100;-86
2023/08/13 06:08:51;;;;;;;7.25;2.50;;;16.50;99.90;;;;;;4829839;29;20049;-86
2023/08/13 06:11:16;;;;;;;7.43;2.15;;;16.60;99.90;;;;;;4796380;29;20052;-84
2023/08/13 06:13:42;;;;;;;5.38;2.35;;;16.60;99.90;;;;;;4824492;29;20048;-85
2023/08/13 06:16:08;;;;;;;8.23;2.42;;;16.60;99.90;;;;;;4816209;29;20545;-86
2023/08/13 06:18:37;;;;;;;5.57;2.25;;;16.60;99.90;;;;;;4828453;29;20097;-85
2023/08/13 06:21:03;;;;;;;8.35;2.13;;;16.70;99.90;;;;;;4809047;29;20132;-85
2023/08/13 06:23:30;;;;;;;4.95;2.13;;;16.70;99.90;;;;;;4828520;29;20056;-84
2023/08/13 06:25:56;;;;;;;6.78;2.70;;;16.70;99.90;;;;;;4844687;29;20057;-86
2023/08/13 06:28:22;;;;;;;7.30;2.58;;;16.70;99.90;;;;;;4829317;29;20514;-85
2023/08/13 06:30:48;;;;;;;9.07;2.47;;;16.70;99.90;;;;;;4828788;29;20061;-84
2023/08/13 06:33:14;;;;;;;9.02;2.58;;;17.00;99.90;;;;;;4828925;29;20128;-89
2023/08/13 06:35:44;;;;;;;7.65;2.38;;;17.50;99.90;;;;;;4850336;29;20120;-84
2023/08/13 06:38:09;;;;;;;4.78;1.98;;;18.70;99.90;;;;;;4828941;29;20048;-86
2023/08/13 06:40:35;;;;;;;6.97;2.08;;;19.50;99.90;;;;;;4849398;29;20041;-87
2023/08/13 06:43:01;;;;;;;5.40;2.42;;;19.90;99.90;;;;;;4839205;29;20053;-84
2023/08/13 06:45:27;;;;;;;5.38;2.10;;;20.50;99.90;;;;;;4838142;29;20076;-85
2023/08/13 06:47:54;;;;;;;6.70;2.42;;;21.60;99.90;;;;;;4822407;29;20041;-88
2023/08/13 06:50:20;;;;;;;5.82;2.30;;;22.30;99.90;;;;;;4823658;29;20073;-89
2023/08/13 06:52:46;;;;;;;4.75;1.80;;;22.80;99.90;;;;;;4819044;29;20169;-87
2023/08/13 06:55:12;;;;;;;5.18;1.77;;;23.50;99.90;;;;;;4847616;29;20053;-84
2023/08/13 06:57:37;;;;;;;8.63;1.60;;;24.40;99.90;;;;;;4832012;29;20048;-87
2023/08/13 07:00:05;;;;;;;4.80;1.60;;;24.80;99.90;;;;;;4814203;29;20094;-87
2023/08/13 07:02:31;;;;;;;6.30;1.70;;;24.30;99.90;;;;;;4830476;29;20042;-89
2023/08/13 07:04:57;;;;;;;6.47;2.10;;;23.50;99.90;;;;;;4805389;29;20497;-85
2023/08/13 07:07:22;;;;;;;6.88;1.83;;;23.20;99.90;;;;;;4826468;29;20041;-87
2023/08/13 07:09:48;;;;;;;5.87;1.90;;;23.70;99.90;;;;;;4801328;29;20048;-88
2023/08/13 07:12:14;;;;;;;5.40;1.73;;;23.80;99.90;;;;;;4845093;29;20044;-86
2023/08/13 07:14:41;;;;;;;5.32;1.67;;;24.10;99.90;;;;;;4816652;29;20464;-85
2023/08/13 07:17:06;;;;;;;5.05;1.65;;;24.80;99.90;;;;;;4827897;29;20099;-85
2023/08/13 07:19:33;;;;;;;5.03;1.60;;;25.60;99.90;;;;;;4838952;29;20042;-87
2023/08/13 07:21:58;;;;;;;4.47;1.63;;;26.20;99.90;;;;;;4831485;29;20052;-88
2023/08/13 07:24:24;;;;;;;5.17;1.63;;;26.80;99.90;;;;;;4795750;29;20046;-85
2023/08/13 07:26:50;;;;;;;4.23;1.67;;;27.30;99.90;;;;;;4812149;29;20049;-86
2023/08/13 07:29:16;;;;;;;5.47;1.50;;;27.80;99.90;;;;;;4815996;29;20048;-90
2023/08/13 07:31:42;;;;;;;6.50;1.95;;;28.10;99.90;;;;;;4833702;29;20060;-87
2023/08/13 07:34:08;;;;;;;4.63;1.50;;;28.40;99.90;;;;;;4833970;29;20049;-91
2023/08/13 07:36:34;;;;;;;5.23;1.47;;;28.50;99.90;;;;;;4832691;29;20041;-85
2023/08/13 07:38:59;;;;;;;4.47;1.57;;;28.70;99.90;;;;;;4815670;29;20045;-85
2023/08/13 07:41:25;;;;;;;4.07;1.47;;;28.30;99.90;;;;;;4834270;29;20495;-84
2023/08/13 07:43:51;;;;;;;3.63;1.40;;;27.70;99.90;;;;;;4827078;29;20053;-87
2023/08/13 07:46:16;;;;;;;6.47;1.47;;;27.60;99.90;;;;;;4828730;29;20053;-86
2023/08/13 07:48:43;;;;;;;4.77;1.27;;;27.40;99.90;;;;;;4819470;29;20053;-86
2023/08/13 07:51:08;;;;;;;3.70;1.33;;;27.10;99.90;;;;;;4843309;29;20050;-85
2023/08/13 07:53:35;;;;;;;4.63;1.20;;;26.90;99.90;;;;;;4830127;29;20088;-89
2023/08/13 07:56:00;;;;;;;3.42;1.27;;;27.20;99.90;;;;;;4824864;29;20558;-86
2023/08/13 07:58:26;;;;;;;4.63;1.20;;;27.60;99.90;;;;;;4845817;29;20046;-87
2023/08/13 08:00:53;;;;;;;4.03;0.90;;;28.00;99.90;;;;;;4829837;29;20045;-88
2023/08/13 08:03:19;;;;;;;5.90;1.50;;;27.70;99.90;;;;;;4825346;29;20067;-87
2023/08/13 08:05:47;;;;;;;6.40;1.30;;;27.30;99.90;;;;;;4819012;29;20041;-91
2023/08/13 08:08:13;;;;;;;7.82;1.50;;;26.70;99.90;;;;;;4843466;29;20063;-87
2023/08/13 08:10:39;;;;;;;4.88;1.38;;;26.40;99.90;;;;;;4842803;29;20101;-87
2023/08/13 08:13:05;;;;;;;5.80;1.30;;;26.50;99.90;;;;;;4828358;29;20041;-85
2023/08/13 08:15:31;;;;;;;4.33;1.20;;;27.00;99.90;;;;;;4844136;29;20053;-87
2023/08/13 08:17:56;;;;;;;6.07;1.40;;;27.50;99.90;;;;;;4834070;29;21550;-88
2023/08/13 08:20:22;;;;;;;5.60;1.58;;;27.10;99.90;;;;;;4825078;29;20609;-86
2023/08/13 08:22:48;;;;;;;3.87;1.30;;;26.60;99.90;;;;;;4821262;29;20053;-84
2023/08/13 08:25:14;;;;;;;6.03;1.53;;;26.40;99.90;;;;;;4796559;29;20038;-86
2023/08/13 08:27:39;;;;;;;3.23;1.30;;;25.70;99.90;;;;;;4839926;29;20061;-86
2023/08/13 08:30:06;;;;;;;3.93;1.37;;;25.00;99.90;;;;;;4810954;29;20042;-84
2023/08/13 08:32:32;;;;;;;3.58;1.30;;;24.50;99.90;;;;;;4809018;29;20050;-84
2023/08/13 08:34:57;;;;;;;3.90;1.33;;;24.70;99.90;;;;;;4836681;29;20041;-86
2023/08/13 08:37:23;;;;;;;4.17;1.33;;;24.90;99.90;;;;;;4831466;29;20133;-85
2023/08/13 08:39:49;;;;;;;5.10;1.30;;;25.20;99.90;;;;;;4835413;29;20125;-86
2023/08/13 08:42:15;;;;;;;5.73;1.47;;;25.20;99.90;;;;;;4800457;29;20061;-85
2023/08/13 08:44:43;;;;;;;4.00;1.30;;;25.00;99.90;;;;;;4814156;29;20630;-86
2023/08/13 08:47:09;;;;;;;2.78;1.08;;;24.90;99.90;;;;;;4838191;29;20053;-88
2023/08/13 08:49:36;;;;;;;4.50;1.10;;;25.00;99.90;;;;;;4830408;29;20041;-85
2023/08/13 08:52:01;;;;;;;2.80;1.10;;;25.00;99.90;;;;;;4817211;29;20138;-85
2023/08/13 08:54:27;;;;;;;5.07;1.60;;;24.70;99.90;;;;;;4829922;29;20044;-86
2023/08/13 08:56:53;;;;;;;4.65;1.40;;;24.60;99.90;;;;;;4811142;29;20038;-83
2023/08/13 08:59:20;;;;;;;4.57;1.13;;;24.70;99.90;;;;;;4829473;29;20038;-88
2023/08/13 09:01:45;;;;;;;3.05;0.82;;;24.50;99.90;;;;;;4837489;29;21020;-86
2023/08/13 09:04:11;;;;;;;5.43;1.10;;;24.10;99.90;;;;;;4838684;29;20045;-86
2023/08/13 09:07:06;;;;;;;3.27;1.00;;;24.20;99.90;;;;;;4834254;29;20048;-84
2023/08/13 09:09:32;;;;;;;5.55;1.40;;;24.30;99.90;;;;;;4833174;29;20053;-83
2023/08/13 09:11:59;;;;;;;4.07;1.03;;;24.40;99.90;;;;;;4809942;29;20078;-86
2023/08/13 09:14:24;;;;;;;;;;;24.10;99.90;;;;;;4799262;29;20767;-86
2023/08/13 09:16:52;;;;;;;4.75;0.90;;;23.90;99.90;;;;;;4815197;29;19924;-87
2023/08/13 09:19:19;;;;;;;4.88;1.15;;;23.90;99.90;;;;;;4846284;29;20048;-87
2023/08/13 09:21:53;;;;;;;4.20;1.05;;;23.80;99.90;;;;;;4833349;29;20061;-86
2023/08/13 09:24:34;;;;;;;4.60;1.63;;;23.60;99.90;;;;;;4831344;29;20045;-85
2023/08/13 09:27:01;;;;;;;3.90;1.25;;;23.60;99.90;;;;;;4848287;29;20079;-85
2023/08/13 09:29:28;;;;;;;;;;;23.40;99.90;;;;;;4834701;29;20037;-87
2023/08/13 09:31:54;;;;;;;3.92;0.90;;;23.00;99.90;;;;;;4828407;29;19924;-87
2023/08/13 09:34:21;;;;;;;4.40;0.90;;;22.80;99.90;;;;;;4812794;29;20041;-89
2023/08/13 09:36:46;;;;;;;2.67;1.08;;;22.50;99.90;;;;;;4829493;29;20213;-86
2023/08/13 09:39:12;;;;;;;3.20;1.17;;;22.20;99.90;;;;;;4811663;29;20516;-91
2023/08/13 09:41:38;;;;;;;3.37;1.07;;;21.90;99.90;;;;;;4830486;29;20061;-89
2023/08/13 09:44:10;;;;;;;2.43;0.83;;;22.00;99.90;;;;;;4798001;29;20046;-91
2023/08/13 09:46:36;;;;;;;3.58;1.00;;;22.30;99.90;;;;;;4845966;29;20041;-84
2023/08/13 09:49:04;;;;;;;3.28;0.90;;;22.80;99.90;;;;;;4830498;29;20053;-91
2023/08/13 09:51:32;;;;;;;3.60;1.30;;;22.80;99.90;;;;;;4836521;29;20049;-85
2023/08/13 09:54:13;;;;;;;3.35;0.90;;;23.00;99.90;;;;;;4838287;29;20069;-88
2023/08/13 09:56:42;;;;;;;4.90;1.10;;;23.00;99.90;;;;;;4824163;29;20121;-88
2023/08/13 09:59:08;;;;;;;3.15;0.75;;;23.20;99.90;;;;;;4833278;29;20421;-86
2023/08/13 10:01:36;;;;;;;6.20;1.60;;;23.20;99.90;;;;;;4835064;29;20041;-88
2023/08/13 10:04:03;;;;;;;3.22;0.75;;;23.20;99.90;;;;;;4827715;29;20045;-91
2023/08/13 10:06:29;;;;;;;3.30;1.00;;;23.10;99.90;;;;;;4824354;29;20084;-89
2023/08/13 10:08:55;;;;;;;2.92;0.80;;;23.10;99.90;;;;;;4828767;29;20042;-83
2023/08/13 10:11:22;;;;;;;2.97;0.77;;;23.10;99.90;;;;;;4845009;29;20516;-93
2023/08/13 10:13:48;;;;;;;;;;;23.20;99.90;;;;;;4832967;29;20048;-89
2023/08/13 10:16:14;;;;;;;5.82;1.20;;;23.10;99.90;;;;;;4822396;29;19920;-87
2023/08/13 10:18:45;;;;;;;5.22;1.52;;;23.20;99.90;;;;;;4847491;29;20045;-85
2023/08/13 10:21:14;;;;;;;2.03;0.70;;;23.00;99.90;;;;;;4830449;29;20085;-88
2023/08/13 10:23:40;;;;;;;3.25;1.02;;;22.90;99.90;;;;;;4830961;29;20041;-90
2023/08/13 10:26:07;;;;;;;3.23;0.93;;;22.90;99.90;;;;;;4809075;29;20704;-91
2023/08/13 10:28:34;;;;;;;3.15;0.70;;;22.80;99.90;;;;;;4810887;29;20477;-90
2023/08/13 10:31:19;;;;;;;4.28;1.13;;;23.00;99.90;;;;;;4837687;29;20409;-84
2023/08/13 10:33:44;;;;;;;2.40;0.80;;;23.10;99.90;;;;;;4843311;29;20501;-83
2023/08/13 10:36:10;;;;;;;2.00;0.50;;;23.20;99.90;;;;;;4836593;29;20129;-85
2023/08/13 10:38:38;;;;;;;3.33;0.70;;;23.30;99.90;;;;;;4798113;29;20041;-91
2023/08/13 10:41:06;;;;;;;2.80;0.70;;;23.40;99.90;;;;;;4813853;29;20532;-82
2023/08/13 10:43:33;;;;;;;3.22;1.13;;;23.40;99.90;;;;;;4828153;29;20057;-87
2023/08/13 10:45:59;;;;;;;2.17;0.70;;;23.50;99.90;;;;;;4829938;29;20490;-94
2023/08/13 10:48:29;;;;;;;2.30;0.67;;;23.50;99.90;;;;;;4843996;29;20056;-87
2023/08/13 10:50:57;;;;;;;3.45;0.77;;;23.60;99.90;;;;;;4840882;29;20053;-89
2023/08/13 10:53:26;;;;;;;4.68;0.90;;;23.70;99.90;;;;;;4826248;29;20038;-91
2023/08/13 10:55:54;;;;;;;2.63;0.90;;;23.80;99.90;;;;;;4832175;29;20038;-89
2023/08/13 10:58:36;;;;;;;2.08;0.80;;;23.80;99.90;;;;;;4834637;29;20400;-92
2023/08/13 11:01:19;;;;;;;2.25;0.70;;;23.80;99.90;;;;;;4829982;29;20520;-86
2023/08/13 11:03:53;;;;;;;3.60;0.70;;;23.70;99.90;;;;;;4830510;29;20109;-88
2023/08/13 11:06:20;;;;;;;2.92;0.52;;;23.60;99.90;;;;;;4821418;29;20503;-90
2023/08/13 11:08:46;;;;;;;2.95;0.85;;;23.50;99.90;;;;;;4837597;29;20124;-86
2023/08/13 11:11:17;;;;;;;4.00;0.70;;;23.30;99.90;;;;;;4845256;29;20569;-94
2023/08/13 11:13:43;;;;;;;3.20;0.90;;;23.10;99.90;;;;;;4830166;29;20045;-87
2023/08/13 11:16:08;;;;;;;1.77;0.60;;;23.00;99.90;;;;;;4845948;29;20536;-88
2023/08/13 11:18:34;;;;;;;3.67;0.80;;;23.00;99.90;;;;;;4844052;29;20076;-85
2023/08/13 11:21:00;;;;;;;1.03;0.50;;;22.80;99.90;;;;;;4833194;29;20576;-90
2023/08/13 11:23:26;;;;;;;4.20;0.90;;;22.70;99.90;;;;;;4814795;29;20052;-90
2023/08/13 11:25:52;;;;;;;3.67;1.00;;;22.60;99.90;;;;;;4813463;29;20071;-89
2023/08/13 11:28:28;;;;;;;2.23;0.80;;;22.50;99.90;;;;;;4845555;29;20726;-89
2023/08/13 11:30:58;;;;;;;2.83;0.77;;;22.40;99.90;;;;;;4836826;29;20087;-87
2023/08/13 11:33:24;;;;;;;3.03;0.70;;;22.40;99.90;;;;;;4813942;29;20037;-81
2023/08/13 11:35:51;;;;;;;3.00;0.80;;;22.50;99.90;;;;;;4832898;29;20037;-85
2023/08/13 11:38:18;;;;;;;1.63;0.60;;;22.50;99.90;;;;;;4829242;29;20084;-85
2023/08/13 11:40:43;;;;;;;2.90;0.88;;;22.60;99.90;;;;;;4824395;29;20092;-90
2023/08/13 11:43:11;;;;;;;3.37;0.90;;;22.60;99.90;;;;;;4843172;29;20081;-84
2023/08/13 11:45:38;;;;;;;3.83;0.80;;;22.50;99.90;;;;;;4801807;29;20036;-86
2023/08/13 11:48:12;;;;;;;2.58;0.80;;;22.50;99.90;;;;;;4829408;29;20041;-85
2023/08/13 11:50:41;;;;;;;1.98;0.80;;;22.50;99.90;;;;;;4849478;29;20049;-89
2023/08/13 11:53:09;;;;;;;4.25;1.10;;;22.50;99.90;;;;;;4842157;29;20182;-85
2023/08/13 11:55:37;;;;;;;3.33;0.90;;;22.60;99.90;;;;;;4838235;29;20038;-87
2023/08/13 11:58:02;;;;;;;2.40;0.70;;;22.80;99.90;;;;;;4826655;29;20118;-89
2023/08/13 12:00:28;;;;;;;3.13;0.80;;;22.80;99.90;;;;;;4843869;29;20045;-90
2023/08/13 12:02:58;;;;;;;2.77;0.90;;;22.80;99.90;;;;;;4823123;29;20049;-89
2023/08/13 12:05:27;;;;;;;2.05;0.68;;;22.80;99.90;;;;;;4812523;29;20041;-84
2023/08/13 12:07:55;;;;;;;3.70;0.60;;;22.60;99.90;;;;;;4843091;29;20112;-87
2023/08/13 12:10:21;;;;;;;2.80;0.88;;;22.60;99.90;;;;;;4813493;29;20070;-86
2023/08/13 12:12:47;;;;;;;3.03;0.60;;;22.50;99.90;;;;;;4827596;29;20038;-86
2023/08/13 12:15:13;;;;;;;1.92;0.65;;;22.50;99.90;;;;;;4826666;29;20037;-92
2023/08/13 12:17:38;;;;;;;2.43;0.70;;;22.50;99.90;;;;;;4828696;29;20049;-86
2023/08/13 12:20:05;;;;;;;1.10;0.50;;;22.40;99.90;;;;;;4848439;29;20060;-84
2023/08/13 12:22:31;;;;;;;2.03;0.68;;;22.30;99.90;;;;;;4816749;29;20041;-86
2023/08/13 12:24:56;;;;;;;2.17;0.70;;;22.30;99.90;;;;;;4829633;29;20571;-82
2023/08/13 12:27:22;;;;;;;1.85;0.57;;;22.20;99.90;;;;;;4855411;29;20053;-87
2023/08/13 12:29:48;;;;;;;2.72;0.75;;;22.20;99.90;;;;;;4830782;29;20046;-87
2023/08/13 12:32:14;;;;;;;3.10;0.83;;;22.20;99.90;;;;;;4818333;29;20046;-86
2023/08/13 12:34:39;;;;;;;3.80;1.03;;;22.30;99.90;;;;;;4828461;29;20037;-88
2023/08/13 12:37:05;;;;;;;1.25;0.52;;;22.30;99.90;;;;;;4832513;29;20434;-84
2023/08/13 12:39:31;;;;;;;2.10;0.50;;;22.30;99.90;;;;;;4840962;29;20037;-87
2023/08/13 12:41:56;;;;;;;2.43;0.63;;;22.30;99.90;;;;;;4842068;29;20061;-88
2023/08/13 12:44:23;;;;;;;2.63;0.90;;;22.30;99.90;;;;;;4832251;29;20053;-85
2023/08/13 12:46:49;;;;;;;2.72;0.98;;;22.30;99.90;;;;;;4821216;29;20045;-84